sensor_id;sensor_type;location;lat;lon;timestamp;P1;durP1;ratioP1;P2;durP2;ratioP2
60917;SDS011;46792;38.854;-9.384;2022-10-31T00:00:29;6.75;;;1.70;;
60917;SDS011;46792;38.854;-9.384;2022-10-31T00:02:30;7.03;;;2.03;;
60917;SDS011;46792;38.854;-9.384;2022-10-31T00:04:30;4.10;;;1.50;;
60917;SDS011;46792;38.854;-9.384;2022-10-31T00:06:34;2.57;;;2.23;;
60917;SDS011;46792;38.854;-9.384;2022-10-31T00:08:34;8.85;;;1.80;;
60917;SDS011;46792;38.854;-9.384;2022-10-31T00:10:38;3.20;;;1.42;;
60917;SDS011;46792;38.854;-9.384;2022-10-31T00:12:40;3.17;;;1.48;;
60917;SDS011;46792;38.854;-9.384;2022-10-31T00:14:40;5.38;;;1.52;;
60917;SDS011;46792;38.854;-9.384;2022-10-31T00:16:41;4.60;;;1.48;;
60917;SDS011;46792;38.854;-9.384;2022-10-31T00:18:42;6.20;;;1.17;;
60917;SDS011;46792;38.854;-9.384;2022-10-31T00:20:42;2.80;;;1.33;;
60917;SDS011;46792;38.854;-9.384;2022-10-31T00:22:43;5.68;;;1.88;;
60917;SDS011;46792;38.854;-9.384;2022-10-31T00:24:44;8.30;;;1.58;;
60917;SDS011;46792;38.854;-9.384;2022-10-31T00:26:44;1.30;;;0.95;;
60917;SDS011;46792;38.854;-9.384;2022-10-31T00:28:45;1.63;;;0.90;;
60917;SDS011;46792;38.854;-9.384;2022-10-31T00:30:46;2.35;;;1.60;;
60917;SDS011;46792;38.854;-9.384;2022-10-31T00:33:05;4.93;;;1.15;;
60917;SDS011;46792;38.854;-9.384;2022-10-31T00:35:06;4.95;;;1.00;;
60917;SDS011;46792;38.854;-9.384;2022-10-31T00:37:07;1.38;;;1.10;;
60917;SDS011;46792;38.854;-9.384;2022-10-31T00:39:09;2.63;;;1.00;;
60917;SDS011;46792;38.854;-9.384;2022-10-31T00:41:10;6.05;;;1.38;;
60917;SDS011;46792;38.854;-9.384;2022-10-31T00:43:14;1.80;;;1.05;;
60917;SDS011;46792;38.854;-9.384;2022-10-31T00:45:15;3.22;;;1.45;;
60917;SDS011;46792;38.854;-9.384;2022-10-31T00:47:16;2.15;;;0.98;;
60917;SDS011;46792;38.854;-9.384;2022-10-31T00:49:16;4.40;;;1.27;;
60917;SDS011;46792;38.854;-9.384;2022-10-31T00:51:17;6.00;;;1.10;;
60917;SDS011;46792;38.854;-9.384;2022-10-31T00:53:17;1.65;;;1.13;;
60917;SDS011;46792;38.854;-9.384;2022-10-31T00:55:18;2.35;;;1.00;;
60917;SDS011;46792;38.854;-9.384;2022-10-31T00:57:19;2.20;;;1.08;;
60917;SDS011;46792;38.854;-9.384;2022-10-31T00:59:20;4.40;;;1.20;;
60917;SDS011;46792;38.854;-9.384;2022-10-31T01:01:21;1.55;;;0.90;;
60917;SDS011;46792;38.854;-9.384;2022-10-31T01:06:02;2.47;;;1.52;;
60917;SDS011;46792;38.854;-9.384;2022-10-31T01:08:06;3.80;;;1.20;;
60917;SDS011;46792;38.854;-9.384;2022-10-31T01:10:07;7.13;;;1.10;;
60917;SDS011;46792;38.854;-9.384;2022-10-31T01:12:09;6.05;;;1.85;;
60917;SDS011;46792;38.854;-9.384;2022-10-31T01:14:13;1.27;;;0.80;;
60917;SDS011;46792;38.854;-9.384;2022-10-31T01:16:14;5.03;;;1.73;;
60917;SDS011;46792;38.854;-9.384;2022-10-31T01:18:16;2.72;;;1.38;;
60917;SDS011;46792;38.854;-9.384;2022-10-31T01:20:17;5.13;;;1.05;;
60917;SDS011;46792;38.854;-9.384;2022-10-31T01:22:18;2.97;;;0.90;;
60917;SDS011;46792;38.854;-9.384;2022-10-31T01:24:18;5.30;;;1.20;;
60917;SDS011;46792;38.854;-9.384;2022-10-31T01:26:37;3.40;;;1.20;;
60917;SDS011;46792;38.854;-9.384;2022-10-31T01:28:39;4.22;;;1.30;;
60917;SDS011;46792;38.854;-9.384;2022-10-31T01:33:22;7.20;;;1.38;;
60917;SDS011;46792;38.854;-9.384;2022-10-31T01:35:22;11.32;;;2.20;;
60917;SDS011;46792;38.854;-9.384;2022-10-31T01:37:23;3.30;;;1.30;;
60917;SDS011;46792;38.854;-9.384;2022-10-31T01:39:24;7.20;;;1.45;;
60917;SDS011;46792;38.854;-9.384;2022-10-31T01:41:26;4.00;;;1.30;;
60917;SDS011;46792;38.854;-9.384;2022-10-31T01:43:45;3.13;;;1.20;;
60917;SDS011;46792;38.854;-9.384;2022-10-31T01:45:50;8.02;;;1.77;;
60917;SDS011;46792;38.854;-9.384;2022-10-31T01:50:28;4.22;;;1.35;;
60917;SDS011;46792;38.854;-9.384;2022-10-31T01:52:52;5.07;;;1.70;;
60917;SDS011;46792;38.854;-9.384;2022-10-31T01:56:59;3.33;;;1.75;;
60917;SDS011;46792;38.854;-9.384;2022-10-31T02:04:19;3.70;;;1.20;;
60917;SDS011;46792;38.854;-9.384;2022-10-31T02:06:33;13.43;;;4.40;;
60917;SDS011;46792;38.854;-9.384;2022-10-31T02:08:38;3.72;;;1.48;;
60917;SDS011;46792;38.854;-9.384;2022-10-31T02:10:59;6.18;;;1.88;;
60917;SDS011;46792;38.854;-9.384;2022-10-31T02:13:01;8.10;;;2.03;;
60917;SDS011;46792;38.854;-9.384;2022-10-31T02:15:04;5.68;;;1.67;;
60917;SDS011;46792;38.854;-9.384;2022-10-31T02:17:05;3.72;;;1.63;;
60917;SDS011;46792;38.854;-9.384;2022-10-31T02:19:06;5.55;;;1.48;;
60917;SDS011;46792;38.854;-9.384;2022-10-31T02:21:15;4.90;;;1.42;;
60917;SDS011;46792;38.854;-9.384;2022-10-31T02:24:05;8.32;;;1.60;;
60917;SDS011;46792;38.854;-9.384;2022-10-31T02:30:27;4.30;;;1.33;;
60917;SDS011;46792;38.854;-9.384;2022-10-31T02:37:11;4.10;;;1.63;;
60917;SDS011;46792;38.854;-9.384;2022-10-31T02:39:31;5.00;;;1.80;;
60917;SDS011;46792;38.854;-9.384;2022-10-31T02:41:58;3.35;;;1.73;;
60917;SDS011;46792;38.854;-9.384;2022-10-31T02:44:21;5.78;;;1.73;;
60917;SDS011;46792;38.854;-9.384;2022-10-31T02:46:45;3.58;;;1.98;;
60917;SDS011;46792;38.854;-9.384;2022-10-31T02:51:04;4.13;;;1.52;;
60917;SDS011;46792;38.854;-9.384;2022-10-31T02:53:05;4.13;;;1.63;;
60917;SDS011;46792;38.854;-9.384;2022-10-31T02:57:31;3.58;;;1.50;;
60917;SDS011;46792;38.854;-9.384;2022-10-31T02:59:34;4.38;;;1.50;;
60917;SDS011;46792;38.854;-9.384;2022-10-31T03:06:20;7.88;;;1.73;;
60917;SDS011;46792;38.854;-9.384;2022-10-31T03:15:09;2.10;;;1.30;;
60917;SDS011;46792;38.854;-9.384;2022-10-31T03:17:14;5.70;;;2.25;;
60917;SDS011;46792;38.854;-9.384;2022-10-31T03:19:23;4.60;;;1.60;;
60917;SDS011;46792;38.854;-9.384;2022-10-31T03:21:27;4.68;;;1.80;;
60917;SDS011;46792;38.854;-9.384;2022-10-31T03:26:14;8.68;;;2.10;;
60917;SDS011;46792;38.854;-9.384;2022-10-31T03:28:16;2.95;;;1.60;;
60917;SDS011;46792;38.854;-9.384;2022-10-31T03:30:24;13.52;;;1.90;;
60917;SDS011;46792;38.854;-9.384;2022-10-31T03:32:34;8.50;;;1.55;;
60917;SDS011;46792;38.854;-9.384;2022-10-31T03:41:50;8.40;;;1.58;;
60917;SDS011;46792;38.854;-9.384;2022-10-31T03:44:19;6.45;;;1.63;;
60917;SDS011;46792;38.854;-9.384;2022-10-31T03:46:32;8.00;;;1.60;;
60917;SDS011;46792;38.854;-9.384;2022-10-31T03:48:33;6.82;;;1.38;;
60917;SDS011;46792;38.854;-9.384;2022-10-31T03:50:38;5.55;;;1.73;;
60917;SDS011;46792;38.854;-9.384;2022-10-31T03:53:06;6.95;;;1.75;;
60917;SDS011;46792;38.854;-9.384;2022-10-31T03:55:22;13.07;;;1.80;;
60917;SDS011;46792;38.854;-9.384;2022-10-31T03:59:44;9.15;;;1.90;;
60917;SDS011;46792;38.854;-9.384;2022-10-31T04:01:49;11.88;;;2.13;;
60917;SDS011;46792;38.854;-9.384;2022-10-31T04:03:53;4.25;;;2.25;;
60917;SDS011;46792;38.854;-9.384;2022-10-31T04:05:56;7.32;;;2.60;;
60917;SDS011;46792;38.854;-9.384;2022-10-31T04:08:03;7.10;;;1.95;;
60917;SDS011;46792;38.854;-9.384;2022-10-31T04:10:09;8.25;;;2.15;;
60917;SDS011;46792;38.854;-9.384;2022-10-31T04:12:12;8.10;;;2.50;;
60917;SDS011;46792;38.854;-9.384;2022-10-31T04:14:25;6.80;;;1.75;;
60917;SDS011;46792;38.854;-9.384;2022-10-31T04:16:30;6.97;;;2.30;;
60917;SDS011;46792;38.854;-9.384;2022-10-31T04:18:30;5.75;;;2.30;;
60917;SDS011;46792;38.854;-9.384;2022-10-31T04:20:32;9.88;;;2.30;;
60917;SDS011;46792;38.854;-9.384;2022-10-31T04:22:34;16.38;;;2.03;;
60917;SDS011;46792;38.854;-9.384;2022-10-31T04:24:36;5.07;;;2.45;;
60917;SDS011;46792;38.854;-9.384;2022-10-31T04:26:39;6.95;;;2.33;;
60917;SDS011;46792;38.854;-9.384;2022-10-31T04:28:41;7.65;;;2.25;;
60917;SDS011;46792;38.854;-9.384;2022-10-31T04:30:41;9.70;;;2.17;;
60917;SDS011;46792;38.854;-9.384;2022-10-31T04:32:42;6.20;;;2.22;;
60917;SDS011;46792;38.854;-9.384;2022-10-31T04:34:42;8.85;;;2.45;;
60917;SDS011;46792;38.854;-9.384;2022-10-31T04:36:44;2.72;;;1.77;;
60917;SDS011;46792;38.854;-9.384;2022-10-31T04:38:48;11.40;;;2.40;;
60917;SDS011;46792;38.854;-9.384;2022-10-31T04:41:09;6.97;;;2.08;;
60917;SDS011;46792;38.854;-9.384;2022-10-31T04:43:25;7.13;;;2.85;;
60917;SDS011;46792;38.854;-9.384;2022-10-31T04:45:26;6.38;;;2.08;;
60917;SDS011;46792;38.854;-9.384;2022-10-31T04:47:30;7.05;;;2.08;;
60917;SDS011;46792;38.854;-9.384;2022-10-31T04:49:34;7.72;;;2.47;;
60917;SDS011;46792;38.854;-9.384;2022-10-31T04:51:34;9.73;;;3.05;;
60917;SDS011;46792;38.854;-9.384;2022-10-31T04:53:35;10.07;;;2.75;;
60917;SDS011;46792;38.854;-9.384;2022-10-31T04:55:54;12.65;;;2.70;;
60917;SDS011;46792;38.854;-9.384;2022-10-31T04:58:13;7.75;;;2.63;;
60917;SDS011;46792;38.854;-9.384;2022-10-31T05:00:15;13.23;;;2.83;;
60917;SDS011;46792;38.854;-9.384;2022-10-31T05:02:18;11.70;;;3.63;;
60917;SDS011;46792;38.854;-9.384;2022-10-31T05:04:28;7.78;;;2.70;;
60917;SDS011;46792;38.854;-9.384;2022-10-31T05:06:28;7.75;;;2.90;;
60917;SDS011;46792;38.854;-9.384;2022-10-31T05:08:30;6.53;;;2.85;;
60917;SDS011;46792;38.854;-9.384;2022-10-31T05:10:32;9.07;;;3.30;;
60917;SDS011;46792;38.854;-9.384;2022-10-31T05:12:34;5.25;;;2.35;;
60917;SDS011;46792;38.854;-9.384;2022-10-31T05:14:41;7.63;;;2.72;;
60917;SDS011;46792;38.854;-9.384;2022-10-31T05:17:00;15.43;;;3.20;;
60917;SDS011;46792;38.854;-9.384;2022-10-31T05:19:27;14.23;;;3.70;;
60917;SDS011;46792;38.854;-9.384;2022-10-31T05:21:47;16.35;;;3.08;;
60917;SDS011;46792;38.854;-9.384;2022-10-31T05:26:26;10.20;;;3.47;;
60917;SDS011;46792;38.854;-9.384;2022-10-31T05:28:28;12.40;;;4.25;;
60917;SDS011;46792;38.854;-9.384;2022-10-31T05:33:27;18.40;;;4.03;;
60917;SDS011;46792;38.854;-9.384;2022-10-31T05:35:46;6.15;;;4.10;;
60917;SDS011;46792;38.854;-9.384;2022-10-31T05:38:14;19.63;;;4.40;;
60917;SDS011;46792;38.854;-9.384;2022-10-31T05:40:16;8.00;;;3.20;;
60917;SDS011;46792;38.854;-9.384;2022-10-31T05:42:18;8.10;;;3.75;;
60917;SDS011;46792;38.854;-9.384;2022-10-31T05:44:18;11.35;;;3.88;;
60917;SDS011;46792;38.854;-9.384;2022-10-31T05:46:31;8.95;;;3.15;;
60917;SDS011;46792;38.854;-9.384;2022-10-31T05:48:51;8.23;;;3.50;;
60917;SDS011;46792;38.854;-9.384;2022-10-31T05:54:06;14.45;;;4.35;;
60917;SDS011;46792;38.854;-9.384;2022-10-31T05:56:07;10.60;;;4.00;;
60917;SDS011;46792;38.854;-9.384;2022-10-31T05:58:08;18.13;;;4.38;;
60917;SDS011;46792;38.854;-9.384;2022-10-31T06:00:28;14.05;;;4.75;;
60917;SDS011;46792;38.854;-9.384;2022-10-31T06:02:47;11.48;;;4.65;;
60917;SDS011;46792;38.854;-9.384;2022-10-31T06:05:07;13.60;;;3.97;;
60917;SDS011;46792;38.854;-9.384;2022-10-31T06:07:26;17.63;;;3.60;;
60917;SDS011;46792;38.854;-9.384;2022-10-31T06:09:52;8.63;;;3.40;;
60917;SDS011;46792;38.854;-9.384;2022-10-31T06:11:55;10.15;;;3.78;;
60917;SDS011;46792;38.854;-9.384;2022-10-31T06:13:58;12.27;;;3.57;;
60917;SDS011;46792;38.854;-9.384;2022-10-31T06:16:07;10.10;;;3.45;;
60917;SDS011;46792;38.854;-9.384;2022-10-31T06:18:10;8.15;;;3.35;;
60917;SDS011;46792;38.854;-9.384;2022-10-31T06:20:30;15.15;;;4.03;;
60917;SDS011;46792;38.854;-9.384;2022-10-31T06:22:37;13.25;;;3.75;;
60917;SDS011;46792;38.854;-9.384;2022-10-31T06:24:37;21.13;;;4.00;;
60917;SDS011;46792;38.854;-9.384;2022-10-31T06:26:51;18.55;;;5.50;;
60917;SDS011;46792;38.854;-9.384;2022-10-31T06:28:51;18.67;;;4.47;;
60917;SDS011;46792;38.854;-9.384;2022-10-31T06:31:13;10.18;;;4.32;;
60917;SDS011;46792;38.854;-9.384;2022-10-31T06:33:14;9.82;;;4.25;;
60917;SDS011;46792;38.854;-9.384;2022-10-31T06:35:21;21.27;;;6.18;;
60917;SDS011;46792;38.854;-9.384;2022-10-31T06:37:24;19.20;;;5.90;;
60917;SDS011;46792;38.854;-9.384;2022-10-31T06:39:27;18.95;;;5.47;;
60917;SDS011;46792;38.854;-9.384;2022-10-31T06:41:28;21.15;;;5.15;;
60917;SDS011;46792;38.854;-9.384;2022-10-31T06:43:30;15.95;;;4.47;;
60917;SDS011;46792;38.854;-9.384;2022-10-31T06:46:04;10.55;;;4.28;;
60917;SDS011;46792;38.854;-9.384;2022-10-31T06:48:09;23.38;;;3.55;;
60917;SDS011;46792;38.854;-9.384;2022-10-31T06:50:19;12.75;;;4.57;;
60917;SDS011;46792;38.854;-9.384;2022-10-31T06:52:20;10.43;;;4.78;;
60917;SDS011;46792;38.854;-9.384;2022-10-31T06:54:24;14.63;;;4.38;;
60917;SDS011;46792;38.854;-9.384;2022-10-31T06:56:25;17.48;;;3.63;;
60917;SDS011;46792;38.854;-9.384;2022-10-31T06:58:29;12.30;;;3.50;;
60917;SDS011;46792;38.854;-9.384;2022-10-31T07:07:57;10.25;;;3.28;;
60917;SDS011;46792;38.854;-9.384;2022-10-31T07:10:01;13.05;;;2.97;;
60917;SDS011;46792;38.854;-9.384;2022-10-31T07:12:17;4.85;;;2.55;;
60917;SDS011;46792;38.854;-9.384;2022-10-31T07:14:26;5.82;;;2.60;;
60917;SDS011;46792;38.854;-9.384;2022-10-31T07:16:27;7.40;;;2.72;;
60917;SDS011;46792;38.854;-9.384;2022-10-31T07:18:28;5.38;;;1.95;;
60917;SDS011;46792;38.854;-9.384;2022-10-31T07:22:48;3.90;;;1.88;;
60917;SDS011;46792;38.854;-9.384;2022-10-31T07:24:49;5.25;;;2.22;;
60917;SDS011;46792;38.854;-9.384;2022-10-31T07:27:18;5.75;;;2.90;;
60917;SDS011;46792;38.854;-9.384;2022-10-31T07:29:21;6.25;;;2.83;;
60917;SDS011;46792;38.854;-9.384;2022-10-31T07:31:42;4.30;;;2.42;;
60917;SDS011;46792;38.854;-9.384;2022-10-31T07:33:49;6.30;;;2.60;;
60917;SDS011;46792;38.854;-9.384;2022-10-31T07:35:59;9.15;;;3.03;;
60917;SDS011;46792;38.854;-9.384;2022-10-31T07:38:07;6.63;;;2.80;;
60917;SDS011;46792;38.854;-9.384;2022-10-31T07:40:09;9.77;;;2.55;;
60917;SDS011;46792;38.854;-9.384;2022-10-31T07:42:11;16.00;;;2.30;;
60917;SDS011;46792;38.854;-9.384;2022-10-31T07:44:16;7.65;;;2.45;;
60917;SDS011;46792;38.854;-9.384;2022-10-31T07:46:21;8.65;;;2.45;;
60917;SDS011;46792;38.854;-9.384;2022-10-31T07:48:48;12.88;;;2.53;;
60917;SDS011;46792;38.854;-9.384;2022-10-31T07:51:07;11.43;;;2.95;;
60917;SDS011;46792;38.854;-9.384;2022-10-31T07:53:40;9.85;;;2.60;;
60917;SDS011;46792;38.854;-9.384;2022-10-31T07:55:48;10.00;;;3.33;;
60917;SDS011;46792;38.854;-9.384;2022-10-31T07:57:55;11.68;;;2.70;;
60917;SDS011;46792;38.854;-9.384;2022-10-31T07:59:57;13.90;;;3.33;;
60917;SDS011;46792;38.854;-9.384;2022-10-31T08:01:58;13.05;;;3.20;;
60917;SDS011;46792;38.854;-9.384;2022-10-31T08:04:04;13.52;;;2.78;;
60917;SDS011;46792;38.854;-9.384;2022-10-31T08:06:25;13.90;;;3.33;;
60917;SDS011;46792;38.854;-9.384;2022-10-31T08:08:49;17.23;;;2.63;;
60917;SDS011;46792;38.854;-9.384;2022-10-31T08:10:50;16.67;;;2.60;;
60917;SDS011;46792;38.854;-9.384;2022-10-31T08:13:10;13.20;;;2.33;;
60917;SDS011;46792;38.854;-9.384;2022-10-31T08:15:16;15.60;;;2.90;;
60917;SDS011;46792;38.854;-9.384;2022-10-31T08:17:18;14.70;;;3.03;;
60917;SDS011;46792;38.854;-9.384;2022-10-31T08:19:28;12.82;;;3.53;;
60917;SDS011;46792;38.854;-9.384;2022-10-31T08:21:29;19.63;;;3.35;;
60917;SDS011;46792;38.854;-9.384;2022-10-31T08:23:31;15.15;;;2.72;;
60917;SDS011;46792;38.854;-9.384;2022-10-31T08:25:33;13.60;;;3.10;;
60917;SDS011;46792;38.854;-9.384;2022-10-31T08:27:35;25.23;;;4.05;;
60917;SDS011;46792;38.854;-9.384;2022-10-31T08:29:36;25.02;;;4.43;;
60917;SDS011;46792;38.854;-9.384;2022-10-31T08:31:57;17.23;;;2.80;;
60917;SDS011;46792;38.854;-9.384;2022-10-31T08:34:18;23.77;;;3.05;;
60917;SDS011;46792;38.854;-9.384;2022-10-31T08:36:37;14.48;;;2.97;;
60917;SDS011;46792;38.854;-9.384;2022-10-31T08:38:51;26.30;;;4.72;;
60917;SDS011;46792;38.854;-9.384;2022-10-31T08:40:51;19.02;;;2.70;;
60917;SDS011;46792;38.854;-9.384;2022-10-31T08:43:13;18.52;;;3.33;;
60917;SDS011;46792;38.854;-9.384;2022-10-31T08:45:17;15.57;;;2.78;;
60917;SDS011;46792;38.854;-9.384;2022-10-31T08:47:18;20.77;;;3.25;;
60917;SDS011;46792;38.854;-9.384;2022-10-31T08:49:18;20.40;;;3.33;;
60917;SDS011;46792;38.854;-9.384;2022-10-31T08:51:20;17.63;;;2.70;;
60917;SDS011;46792;38.854;-9.384;2022-10-31T08:53:24;14.13;;;2.70;;
60917;SDS011;46792;38.854;-9.384;2022-10-31T08:55:37;19.02;;;2.42;;
60917;SDS011;46792;38.854;-9.384;2022-10-31T08:57:47;21.60;;;3.00;;
60917;SDS011;46792;38.854;-9.384;2022-10-31T08:59:48;18.17;;;2.28;;
60917;SDS011;46792;38.854;-9.384;2022-10-31T09:02:00;32.13;;;4.88;;
60917;SDS011;46792;38.854;-9.384;2022-10-31T09:04:01;28.63;;;2.92;;
60917;SDS011;46792;38.854;-9.384;2022-10-31T09:06:02;32.58;;;2.75;;
60917;SDS011;46792;38.854;-9.384;2022-10-31T09:08:04;18.48;;;2.30;;
60917;SDS011;46792;38.854;-9.384;2022-10-31T09:10:06;17.77;;;2.60;;
60917;SDS011;46792;38.854;-9.384;2022-10-31T09:12:12;32.45;;;3.25;;
60917;SDS011;46792;38.854;-9.384;2022-10-31T09:14:31;19.85;;;2.40;;
60917;SDS011;46792;38.854;-9.384;2022-10-31T09:16:52;21.95;;;2.90;;
60917;SDS011;46792;38.854;-9.384;2022-10-31T09:18:58;33.85;;;4.35;;
60917;SDS011;46792;38.854;-9.384;2022-10-31T09:20:59;28.42;;;4.32;;
60917;SDS011;46792;38.854;-9.384;2022-10-31T09:23:15;25.33;;;3.53;;
60917;SDS011;46792;38.854;-9.384;2022-10-31T09:25:17;22.20;;;3.28;;
60917;SDS011;46792;38.854;-9.384;2022-10-31T09:27:25;31.63;;;4.75;;
60917;SDS011;46792;38.854;-9.384;2022-10-31T09:29:28;27.38;;;3.42;;
60917;SDS011;46792;38.854;-9.384;2022-10-31T09:31:33;30.38;;;3.20;;
60917;SDS011;46792;38.854;-9.384;2022-10-31T09:33:40;22.02;;;3.65;;
60917;SDS011;46792;38.854;-9.384;2022-10-31T09:36:08;25.92;;;3.40;;
60917;SDS011;46792;38.854;-9.384;2022-10-31T09:38:15;33.28;;;2.88;;
60917;SDS011;46792;38.854;-9.384;2022-10-31T09:45:34;27.98;;;3.50;;
60917;SDS011;46792;38.854;-9.384;2022-10-31T09:51:00;18.08;;;2.40;;
60917;SDS011;46792;38.854;-9.384;2022-10-31T09:53:12;19.00;;;2.63;;
60917;SDS011;46792;38.854;-9.384;2022-10-31T09:55:30;26.15;;;4.38;;
60917;SDS011;46792;38.854;-9.384;2022-10-31T09:57:36;23.20;;;3.72;;
60917;SDS011;46792;38.854;-9.384;2022-10-31T09:59:39;24.42;;;3.30;;
60917;SDS011;46792;38.854;-9.384;2022-10-31T10:01:51;22.35;;;3.33;;
60917;SDS011;46792;38.854;-9.384;2022-10-31T10:03:58;20.58;;;2.90;;
60917;SDS011;46792;38.854;-9.384;2022-10-31T10:06:32;33.30;;;3.78;;
60917;SDS011;46792;38.854;-9.384;2022-10-31T10:08:54;32.35;;;3.95;;
60917;SDS011;46792;38.854;-9.384;2022-10-31T10:16:02;25.75;;;3.05;;
60917;SDS011;46792;38.854;-9.384;2022-10-31T10:18:25;16.38;;;2.80;;
60917;SDS011;46792;38.854;-9.384;2022-10-31T10:21:02;20.05;;;3.38;;
60917;SDS011;46792;38.854;-9.384;2022-10-31T10:23:23;16.15;;;2.08;;
60917;SDS011;46792;38.854;-9.384;2022-10-31T10:25:49;21.98;;;3.90;;
60917;SDS011;46792;38.854;-9.384;2022-10-31T10:28:04;25.50;;;2.72;;
60917;SDS011;46792;38.854;-9.384;2022-10-31T10:32:49;14.75;;;2.63;;
60917;SDS011;46792;38.854;-9.384;2022-10-31T10:34:57;9.55;;;1.90;;
60917;SDS011;46792;38.854;-9.384;2022-10-31T10:39:15;10.63;;;2.30;;
60917;SDS011;46792;38.854;-9.384;2022-10-31T10:41:21;13.05;;;1.98;;
60917;SDS011;46792;38.854;-9.384;2022-10-31T10:45:39;21.80;;;3.00;;
60917;SDS011;46792;38.854;-9.384;2022-10-31T10:48:15;14.70;;;2.67;;
60917;SDS011;46792;38.854;-9.384;2022-10-31T10:50:27;13.15;;;2.00;;
60917;SDS011;46792;38.854;-9.384;2022-10-31T10:54:54;12.68;;;2.42;;
60917;SDS011;46792;38.854;-9.384;2022-10-31T10:59:31;10.45;;;1.67;;
60917;SDS011;46792;38.854;-9.384;2022-10-31T11:01:32;24.10;;;2.83;;
60917;SDS011;46792;38.854;-9.384;2022-10-31T11:03:33;18.60;;;2.65;;
60917;SDS011;46792;38.854;-9.384;2022-10-31T11:05:47;15.82;;;2.10;;
60917;SDS011;46792;38.854;-9.384;2022-10-31T11:07:51;14.70;;;2.08;;
60917;SDS011;46792;38.854;-9.384;2022-10-31T11:10:02;10.98;;;1.77;;
60917;SDS011;46792;38.854;-9.384;2022-10-31T11:12:11;18.02;;;2.35;;
60917;SDS011;46792;38.854;-9.384;2022-10-31T11:14:45;17.50;;;2.60;;
60917;SDS011;46792;38.854;-9.384;2022-10-31T11:17:07;13.85;;;2.17;;
60917;SDS011;46792;38.854;-9.384;2022-10-31T11:19:19;26.15;;;3.10;;
60917;SDS011;46792;38.854;-9.384;2022-10-31T11:21:29;18.88;;;2.13;;
60917;SDS011;46792;38.854;-9.384;2022-10-31T11:23:33;16.90;;;2.13;;
60917;SDS011;46792;38.854;-9.384;2022-10-31T11:25:34;18.30;;;2.38;;
60917;SDS011;46792;38.854;-9.384;2022-10-31T11:27:34;19.05;;;2.20;;
60917;SDS011;46792;38.854;-9.384;2022-10-31T11:29:35;18.48;;;2.58;;
60917;SDS011;46792;38.854;-9.384;2022-10-31T11:31:36;16.67;;;2.08;;
60917;SDS011;46792;38.854;-9.384;2022-10-31T11:33:39;20.63;;;2.10;;
60917;SDS011;46792;38.854;-9.384;2022-10-31T11:35:47;35.65;;;3.83;;
60917;SDS011;46792;38.854;-9.384;2022-10-31T11:37:49;14.98;;;2.10;;
60917;SDS011;46792;38.854;-9.384;2022-10-31T11:39:53;7.82;;;1.65;;
60917;SDS011;46792;38.854;-9.384;2022-10-31T11:41:59;23.83;;;2.75;;
60917;SDS011;46792;38.854;-9.384;2022-10-31T11:44:05;19.77;;;2.92;;
60917;SDS011;46792;38.854;-9.384;2022-10-31T11:48:22;9.27;;;1.63;;
60917;SDS011;46792;38.854;-9.384;2022-10-31T11:50:34;17.67;;;2.67;;
60917;SDS011;46792;38.854;-9.384;2022-10-31T11:52:39;19.17;;;2.20;;
60917;SDS011;46792;38.854;-9.384;2022-10-31T11:56:53;21.73;;;2.28;;
60917;SDS011;46792;38.854;-9.384;2022-10-31T11:58:54;12.70;;;2.17;;
60917;SDS011;46792;38.854;-9.384;2022-10-31T12:01:05;19.05;;;2.17;;
60917;SDS011;46792;38.854;-9.384;2022-10-31T12:05:26;12.88;;;2.72;;
60917;SDS011;46792;38.854;-9.384;2022-10-31T12:07:33;15.65;;;2.17;;
60917;SDS011;46792;38.854;-9.384;2022-10-31T12:09:35;12.00;;;2.17;;
60917;SDS011;46792;38.854;-9.384;2022-10-31T12:12:27;10.88;;;1.90;;
60917;SDS011;46792;38.854;-9.384;2022-10-31T12:25:59;14.82;;;1.95;;
60917;SDS011;46792;38.854;-9.384;2022-10-31T12:33:07;10.70;;;2.00;;
60917;SDS011;46792;38.854;-9.384;2022-10-31T12:42:27;8.55;;;2.47;;
60917;SDS011;46792;38.854;-9.384;2022-10-31T12:48:59;11.52;;;2.00;;
60917;SDS011;46792;38.854;-9.384;2022-10-31T12:53:52;6.40;;;1.17;;
60917;SDS011;46792;38.854;-9.384;2022-10-31T12:58:21;5.15;;;1.95;;
60917;SDS011;46792;38.854;-9.384;2022-10-31T13:00:23;5.15;;;1.35;;
60917;SDS011;46792;38.854;-9.384;2022-10-31T13:04:35;6.60;;;1.02;;
60917;SDS011;46792;38.854;-9.384;2022-10-31T13:07:00;7.22;;;1.70;;
60917;SDS011;46792;38.854;-9.384;2022-10-31T13:09:08;7.22;;;1.25;;
60917;SDS011;46792;38.854;-9.384;2022-10-31T13:11:15;5.85;;;1.10;;
60917;SDS011;46792;38.854;-9.384;2022-10-31T13:15:47;12.48;;;5.88;;
60917;SDS011;46792;38.854;-9.384;2022-10-31T13:18:01;3.03;;;0.77;;
60917;SDS011;46792;38.854;-9.384;2022-10-31T13:20:12;2.55;;;1.02;;
60917;SDS011;46792;38.854;-9.384;2022-10-31T13:22:47;4.85;;;1.40;;
60917;SDS011;46792;38.854;-9.384;2022-10-31T13:27:21;6.65;;;1.40;;
60917;SDS011;46792;38.854;-9.384;2022-10-31T13:29:30;5.35;;;0.90;;
60917;SDS011;46792;38.854;-9.384;2022-10-31T13:31:52;1.83;;;1.10;;
60917;SDS011;46792;38.854;-9.384;2022-10-31T13:33:57;1.98;;;0.80;;
60917;SDS011;46792;38.854;-9.384;2022-10-31T13:38:41;1.23;;;0.77;;
60917;SDS011;46792;38.854;-9.384;2022-10-31T13:40:59;1.50;;;0.85;;
60917;SDS011;46792;38.854;-9.384;2022-10-31T13:45:12;2.10;;;1.10;;
60917;SDS011;46792;38.854;-9.384;2022-10-31T13:47:27;2.28;;;1.20;;
60917;SDS011;46792;38.854;-9.384;2022-10-31T13:49:48;7.37;;;0.97;;
60917;SDS011;46792;38.854;-9.384;2022-10-31T13:51:49;5.32;;;0.70;;
60917;SDS011;46792;38.854;-9.384;2022-10-31T13:58:28;1.33;;;0.80;;
60917;SDS011;46792;38.854;-9.384;2022-10-31T14:00:30;5.72;;;1.35;;
60917;SDS011;46792;38.854;-9.384;2022-10-31T14:02:36;3.80;;;0.95;;
60917;SDS011;46792;38.854;-9.384;2022-10-31T14:04:54;3.83;;;1.30;;
60917;SDS011;46792;38.854;-9.384;2022-10-31T14:07:05;1.35;;;1.05;;
60917;SDS011;46792;38.854;-9.384;2022-10-31T14:09:18;4.07;;;1.35;;
60917;SDS011;46792;38.854;-9.384;2022-10-31T14:11:49;7.68;;;1.25;;
60917;SDS011;46792;38.854;-9.384;2022-10-31T14:13:51;2.95;;;0.75;;
60917;SDS011;46792;38.854;-9.384;2022-10-31T14:15:57;1.67;;;0.80;;
60917;SDS011;46792;38.854;-9.384;2022-10-31T14:18:02;1.83;;;0.80;;
60917;SDS011;46792;38.854;-9.384;2022-10-31T14:22:21;3.45;;;0.82;;
60917;SDS011;46792;38.854;-9.384;2022-10-31T14:28:33;4.13;;;0.95;;
60917;SDS011;46792;38.854;-9.384;2022-10-31T14:30:35;3.35;;;1.30;;
60917;SDS011;46792;38.854;-9.384;2022-10-31T14:32:36;6.40;;;0.95;;
60917;SDS011;46792;38.854;-9.384;2022-10-31T14:34:40;13.07;;;2.53;;
60917;SDS011;46792;38.854;-9.384;2022-10-31T14:45:46;14.77;;;2.25;;
60917;SDS011;46792;38.854;-9.384;2022-10-31T14:52:56;30.15;;;3.53;;
60917;SDS011;46792;38.854;-9.384;2022-10-31T14:54:58;32.63;;;3.40;;
60917;SDS011;46792;38.854;-9.384;2022-10-31T14:57:04;30.92;;;3.40;;
60917;SDS011;46792;38.854;-9.384;2022-10-31T14:59:14;27.05;;;3.17;;
60917;SDS011;46792;38.854;-9.384;2022-10-31T15:01:38;20.83;;;3.85;;
60917;SDS011;46792;38.854;-9.384;2022-10-31T15:03:40;41.15;;;3.20;;
60917;SDS011;46792;38.854;-9.384;2022-10-31T15:05:46;20.58;;;2.60;;
60917;SDS011;46792;38.854;-9.384;2022-10-31T15:07:56;36.60;;;4.53;;
60917;SDS011;46792;38.854;-9.384;2022-10-31T15:10:04;29.48;;;3.67;;
60917;SDS011;46792;38.854;-9.384;2022-10-31T15:12:26;17.88;;;2.95;;
60917;SDS011;46792;38.854;-9.384;2022-10-31T15:14:29;31.38;;;3.30;;
60917;SDS011;46792;38.854;-9.384;2022-10-31T15:16:32;38.58;;;3.70;;
60917;SDS011;46792;38.854;-9.384;2022-10-31T15:18:35;24.63;;;3.08;;
60917;SDS011;46792;38.854;-9.384;2022-10-31T15:20:45;19.80;;;3.08;;
60917;SDS011;46792;38.854;-9.384;2022-10-31T15:22:46;28.52;;;2.88;;
60917;SDS011;46792;38.854;-9.384;2022-10-31T15:24:49;16.55;;;3.25;;
60917;SDS011;46792;38.854;-9.384;2022-10-31T15:26:56;16.40;;;3.55;;